sensor_id;sensor_type;location;lat;lon;timestamp;P1;durP1;ratioP1;P2;durP2;ratioP2
20695;SDS011;10507;52.754;13.040;2023-01-23T00:01:36;19.37;;;10.47;;
20695;SDS011;10507;52.754;13.040;2023-01-23T00:04:06;16.73;;;10.43;;
20695;SDS011;10507;52.754;13.040;2023-01-23T00:06:34;15.40;;;9.50;;
20695;SDS011;10507;52.754;13.040;2023-01-23T00:09:02;18.73;;;10.53;;
20695;SDS011;10507;52.754;13.040;2023-01-23T00:11:30;19.37;;;10.90;;
20695;SDS011;10507;52.754;13.040;2023-01-23T00:13:59;19.30;;;11.17;;
20695;SDS011;10507;52.754;13.040;2023-01-23T00:16:29;16.53;;;9.73;;
20695;SDS011;10507;52.754;13.040;2023-01-23T00:18:58;18.83;;;11.00;;
20695;SDS011;10507;52.754;13.040;2023-01-23T00:21:29;18.80;;;10.63;;
20695;SDS011;10507;52.754;13.040;2023-01-23T00:23:58;17.70;;;10.60;;
20695;SDS011;10507;52.754;13.040;2023-01-23T00:26:31;18.73;;;11.00;;
20695;SDS011;10507;52.754;13.040;2023-01-23T00:29:03;17.40;;;10.53;;
20695;SDS011;10507;52.754;13.040;2023-01-23T00:31:35;21.87;;;11.37;;
20695;SDS011;10507;52.754;13.040;2023-01-23T00:34:05;19.77;;;10.63;;
20695;SDS011;10507;52.754;13.040;2023-01-23T00:36:37;19.43;;;10.77;;
20695;SDS011;10507;52.754;13.040;2023-01-23T00:39:15;18.23;;;10.70;;
20695;SDS011;10507;52.754;13.040;2023-01-23T00:41:45;18.57;;;10.00;;
20695;SDS011;10507;52.754;13.040;2023-01-23T00:44:13;21.33;;;10.93;;
20695;SDS011;10507;52.754;13.040;2023-01-23T00:46:42;20.33;;;11.03;;
20695;SDS011;10507;52.754;13.040;2023-01-23T00:49:10;18.97;;;11.30;;
20695;SDS011;10507;52.754;13.040;2023-01-23T00:51:40;21.10;;;11.33;;
20695;SDS011;10507;52.754;13.040;2023-01-23T00:54:08;19.93;;;10.03;;
20695;SDS011;10507;52.754;13.040;2023-01-23T00:56:36;20.60;;;11.27;;
20695;SDS011;10507;52.754;13.040;2023-01-23T00:59:04;21.47;;;11.20;;
20695;SDS011;10507;52.754;13.040;2023-01-23T01:01:35;19.50;;;11.10;;
20695;SDS011;10507;52.754;13.040;2023-01-23T01:04:04;17.50;;;9.97;;
20695;SDS011;10507;52.754;13.040;2023-01-23T01:06:32;21.43;;;11.87;;
20695;SDS011;10507;52.754;13.040;2023-01-23T01:09:02;22.57;;;11.73;;
20695;SDS011;10507;52.754;13.040;2023-01-23T01:11:31;21.93;;;11.47;;
20695;SDS011;10507;52.754;13.040;2023-01-23T01:13:59;21.23;;;12.47;;
20695;SDS011;10507;52.754;13.040;2023-01-23T01:16:27;19.87;;;11.23;;
20695;SDS011;10507;52.754;13.040;2023-01-23T01:18:58;20.90;;;11.00;;
20695;SDS011;10507;52.754;13.040;2023-01-23T01:21:26;23.83;;;11.67;;
20695;SDS011;10507;52.754;13.040;2023-01-23T01:23:55;20.03;;;12.03;;
20695;SDS011;10507;52.754;13.040;2023-01-23T01:26:25;22.07;;;11.53;;
20695;SDS011;10507;52.754;13.040;2023-01-23T01:28:52;21.63;;;11.57;;
20695;SDS011;10507;52.754;13.040;2023-01-23T01:31:21;22.47;;;12.13;;
20695;SDS011;10507;52.754;13.040;2023-01-23T01:33:50;22.57;;;12.07;;
20695;SDS011;10507;52.754;13.040;2023-01-23T01:36:19;22.43;;;12.50;;
20695;SDS011;10507;52.754;13.040;2023-01-23T01:38:54;22.03;;;12.20;;
20695;SDS011;10507;52.754;13.040;2023-01-23T01:41:26;21.20;;;11.30;;
20695;SDS011;10507;52.754;13.040;2023-01-23T01:43:54;21.80;;;11.60;;
20695;SDS011;10507;52.754;13.040;2023-01-23T01:46:25;23.03;;;12.77;;
20695;SDS011;10507;52.754;13.040;2023-01-23T01:49:02;22.67;;;12.23;;
20695;SDS011;10507;52.754;13.040;2023-01-23T01:51:36;20.90;;;11.87;;
20695;SDS011;10507;52.754;13.040;2023-01-23T01:54:10;23.70;;;12.63;;
20695;SDS011;10507;52.754;13.040;2023-01-23T01:56:47;20.87;;;11.37;;
20695;SDS011;10507;52.754;13.040;2023-01-23T01:59:21;20.50;;;12.07;;
20695;SDS011;10507;52.754;13.040;2023-01-23T02:02:03;22.77;;;13.07;;
20695;SDS011;10507;52.754;13.040;2023-01-23T02:04:37;21.93;;;11.50;;
20695;SDS011;10507;52.754;13.040;2023-01-23T02:07:18;22.00;;;12.43;;
20695;SDS011;10507;52.754;13.040;2023-01-23T02:09:50;25.03;;;12.47;;
20695;SDS011;10507;52.754;13.040;2023-01-23T02:12:24;20.63;;;12.07;;
20695;SDS011;10507;52.754;13.040;2023-01-23T02:14:54;25.50;;;12.87;;
20695;SDS011;10507;52.754;13.040;2023-01-23T02:17:23;22.90;;;11.83;;
20695;SDS011;10507;52.754;13.040;2023-01-23T02:19:58;23.17;;;12.23;;
20695;SDS011;10507;52.754;13.040;2023-01-23T02:22:36;21.03;;;13.13;;
20695;SDS011;10507;52.754;13.040;2023-01-23T02:25:13;25.10;;;12.67;;
20695;SDS011;10507;52.754;13.040;2023-01-23T02:27:48;22.30;;;12.70;;
20695;SDS011;10507;52.754;13.040;2023-01-23T02:30:17;22.27;;;12.10;;
20695;SDS011;10507;52.754;13.040;2023-01-23T02:32:47;26.37;;;12.97;;
20695;SDS011;10507;52.754;13.040;2023-01-23T02:35:17;25.13;;;13.53;;
20695;SDS011;10507;52.754;13.040;2023-01-23T02:37:55;20.73;;;12.23;;
20695;SDS011;10507;52.754;13.040;2023-01-23T02:40:30;23.57;;;11.97;;
20695;SDS011;10507;52.754;13.040;2023-01-23T02:43:03;20.80;;;12.17;;
20695;SDS011;10507;52.754;13.040;2023-01-23T02:45:38;20.13;;;11.50;;
20695;SDS011;10507;52.754;13.040;2023-01-23T02:48:11;21.97;;;11.50;;
20695;SDS011;10507;52.754;13.040;2023-01-23T02:50:41;20.67;;;11.90;;
20695;SDS011;10507;52.754;13.040;2023-01-23T02:53:12;21.23;;;11.83;;
20695;SDS011;10507;52.754;13.040;2023-01-23T02:55:40;26.73;;;12.13;;
20695;SDS011;10507;52.754;13.040;2023-01-23T02:58:10;23.40;;;12.83;;
20695;SDS011;10507;52.754;13.040;2023-01-23T03:00:55;25.60;;;12.10;;
20695;SDS011;10507;52.754;13.040;2023-01-23T03:03:26;24.03;;;12.80;;
20695;SDS011;10507;52.754;13.040;2023-01-23T03:05:54;23.37;;;12.83;;
20695;SDS011;10507;52.754;13.040;2023-01-23T03:08:25;23.43;;;13.53;;
20695;SDS011;10507;52.754;13.040;2023-01-23T03:10:58;28.10;;;13.20;;
20695;SDS011;10507;52.754;13.040;2023-01-23T03:13:29;24.90;;;12.90;;
20695;SDS011;10507;52.754;13.040;2023-01-23T03:15:58;24.53;;;12.27;;
20695;SDS011;10507;52.754;13.040;2023-01-23T03:18:26;22.00;;;12.07;;
20695;SDS011;10507;52.754;13.040;2023-01-23T03:21:00;25.17;;;13.10;;
20695;SDS011;10507;52.754;13.040;2023-01-23T03:23:28;23.07;;;12.07;;
20695;SDS011;10507;52.754;13.040;2023-01-23T03:25:58;25.37;;;13.40;;
20695;SDS011;10507;52.754;13.040;2023-01-23T03:28:28;25.40;;;13.20;;
20695;SDS011;10507;52.754;13.040;2023-01-23T03:31:15;21.80;;;12.43;;
20695;SDS011;10507;52.754;13.040;2023-01-23T03:33:49;26.77;;;13.33;;
20695;SDS011;10507;52.754;13.040;2023-01-23T03:36:19;25.23;;;13.10;;
20695;SDS011;10507;52.754;13.040;2023-01-23T03:38:48;24.47;;;12.80;;
20695;SDS011;10507;52.754;13.040;2023-01-23T03:41:33;25.93;;;13.30;;
20695;SDS011;10507;52.754;13.040;2023-01-23T03:44:08;24.87;;;12.37;;
20695;SDS011;10507;52.754;13.040;2023-01-23T03:46:41;24.70;;;12.97;;
20695;SDS011;10507;52.754;13.040;2023-01-23T03:49:09;23.23;;;12.53;;
20695;SDS011;10507;52.754;13.040;2023-01-23T03:51:37;28.53;;;14.90;;
20695;SDS011;10507;52.754;13.040;2023-01-23T03:54:11;28.47;;;13.70;;
20695;SDS011;10507;52.754;13.040;2023-01-23T03:56:41;25.67;;;13.40;;
20695;SDS011;10507;52.754;13.040;2023-01-23T03:59:11;26.20;;;13.30;;
20695;SDS011;10507;52.754;13.040;2023-01-23T04:01:38;25.93;;;14.07;;
20695;SDS011;10507;52.754;13.040;2023-01-23T04:04:07;24.27;;;12.27;;
20695;SDS011;10507;52.754;13.040;2023-01-23T04:06:38;27.27;;;13.80;;
20695;SDS011;10507;52.754;13.040;2023-01-23T04:09:10;25.87;;;13.60;;
20695;SDS011;10507;52.754;13.040;2023-01-23T04:11:40;25.53;;;13.37;;
20695;SDS011;10507;52.754;13.040;2023-01-23T04:14:18;28.27;;;15.20;;
20695;SDS011;10507;52.754;13.040;2023-01-23T04:16:46;26.03;;;12.77;;
20695;SDS011;10507;52.754;13.040;2023-01-23T04:19:16;25.03;;;13.53;;
20695;SDS011;10507;52.754;13.040;2023-01-23T04:21:48;23.60;;;13.60;;
20695;SDS011;10507;52.754;13.040;2023-01-23T04:24:17;23.93;;;12.83;;
20695;SDS011;10507;52.754;13.040;2023-01-23T04:26:45;26.40;;;13.90;;
20695;SDS011;10507;52.754;13.040;2023-01-23T04:29:13;24.90;;;12.70;;
20695;SDS011;10507;52.754;13.040;2023-01-23T04:31:44;25.33;;;13.17;;
20695;SDS011;10507;52.754;13.040;2023-01-23T04:34:29;25.00;;;14.27;;
20695;SDS011;10507;52.754;13.040;2023-01-23T04:37:02;23.87;;;13.17;;
20695;SDS011;10507;52.754;13.040;2023-01-23T04:39:33;25.13;;;13.77;;
20695;SDS011;10507;52.754;13.040;2023-01-23T04:42:01;30.07;;;13.63;;
20695;SDS011;10507;52.754;13.040;2023-01-23T04:44:30;25.80;;;13.00;;
20695;SDS011;10507;52.754;13.040;2023-01-23T04:47:00;25.27;;;13.10;;
20695;SDS011;10507;52.754;13.040;2023-01-23T04:49:28;29.23;;;14.67;;
20695;SDS011;10507;52.754;13.040;2023-01-23T04:51:59;28.23;;;14.43;;
20695;SDS011;10507;52.754;13.040;2023-01-23T04:54:27;26.33;;;13.50;;
20695;SDS011;10507;52.754;13.040;2023-01-23T04:56:55;23.77;;;12.53;;
20695;SDS011;10507;52.754;13.040;2023-01-23T04:59:23;25.37;;;13.07;;
20695;SDS011;10507;52.754;13.040;2023-01-23T05:01:51;26.73;;;13.67;;
20695;SDS011;10507;52.754;13.040;2023-01-23T05:04:23;26.07;;;13.13;;
20695;SDS011;10507;52.754;13.040;2023-01-23T05:06:50;27.53;;;13.07;;
20695;SDS011;10507;52.754;13.040;2023-01-23T05:09:18;24.87;;;15.13;;
20695;SDS011;10507;52.754;13.040;2023-01-23T05:11:47;25.37;;;12.53;;
20695;SDS011;10507;52.754;13.040;2023-01-23T05:14:15;26.30;;;13.03;;
20695;SDS011;10507;52.754;13.040;2023-01-23T05:16:44;24.57;;;13.53;;
20695;SDS011;10507;52.754;13.040;2023-01-23T05:19:14;28.80;;;13.73;;
20695;SDS011;10507;52.754;13.040;2023-01-23T05:21:44;28.53;;;14.67;;
20695;SDS011;10507;52.754;13.040;2023-01-23T05:24:12;24.43;;;12.97;;
20695;SDS011;10507;52.754;13.040;2023-01-23T05:26:40;26.53;;;13.23;;
20695;SDS011;10507;52.754;13.040;2023-01-23T05:29:09;23.53;;;12.67;;
20695;SDS011;10507;52.754;13.040;2023-01-23T05:31:37;24.30;;;12.93;;
20695;SDS011;10507;52.754;13.040;2023-01-23T05:34:05;23.20;;;12.77;;
20695;SDS011;10507;52.754;13.040;2023-01-23T05:36:33;27.63;;;14.47;;
20695;SDS011;10507;52.754;13.040;2023-01-23T05:39:02;26.70;;;14.30;;
20695;SDS011;10507;52.754;13.040;2023-01-23T05:41:30;26.43;;;13.90;;
20695;SDS011;10507;52.754;13.040;2023-01-23T05:43:58;25.20;;;14.10;;
20695;SDS011;10507;52.754;13.040;2023-01-23T05:46:26;23.40;;;13.43;;
20695;SDS011;10507;52.754;13.040;2023-01-23T05:48:56;27.50;;;14.50;;
20695;SDS011;10507;52.754;13.040;2023-01-23T05:51:25;23.07;;;12.43;;
20695;SDS011;10507;52.754;13.040;2023-01-23T05:53:57;24.90;;;13.17;;
20695;SDS011;10507;52.754;13.040;2023-01-23T05:56:28;22.33;;;12.33;;
20695;SDS011;10507;52.754;13.040;2023-01-23T05:58:56;27.40;;;13.93;;
20695;SDS011;10507;52.754;13.040;2023-01-23T06:01:24;25.83;;;13.50;;
20695;SDS011;10507;52.754;13.040;2023-01-23T06:03:52;27.37;;;15.03;;
20695;SDS011;10507;52.754;13.040;2023-01-23T06:06:20;24.37;;;13.17;;
20695;SDS011;10507;52.754;13.040;2023-01-23T06:08:48;27.13;;;14.07;;
20695;SDS011;10507;52.754;13.040;2023-01-23T06:11:16;27.40;;;14.77;;
20695;SDS011;10507;52.754;13.040;2023-01-23T06:13:45;26.00;;;12.67;;
20695;SDS011;10507;52.754;13.040;2023-01-23T06:16:13;25.57;;;13.90;;
20695;SDS011;10507;52.754;13.040;2023-01-23T06:18:41;25.23;;;14.77;;
20695;SDS011;10507;52.754;13.040;2023-01-23T06:21:09;26.33;;;13.70;;
20695;SDS011;10507;52.754;13.040;2023-01-23T06:23:37;26.60;;;14.13;;
20695;SDS011;10507;52.754;13.040;2023-01-23T06:26:05;24.60;;;14.00;;
20695;SDS011;10507;52.754;13.040;2023-01-23T06:28:33;25.87;;;13.80;;
20695;SDS011;10507;52.754;13.040;2023-01-23T06:31:03;26.07;;;13.30;;
20695;SDS011;10507;52.754;13.040;2023-01-23T06:33:32;25.10;;;14.20;;
20695;SDS011;10507;52.754;13.040;2023-01-23T06:36:06;27.80;;;13.70;;
20695;SDS011;10507;52.754;13.040;2023-01-23T06:38:35;30.13;;;15.30;;
20695;SDS011;10507;52.754;13.040;2023-01-23T06:41:04;26.83;;;13.27;;
20695;SDS011;10507;52.754;13.040;2023-01-23T06:43:32;25.50;;;13.27;;
20695;SDS011;10507;52.754;13.040;2023-01-23T06:46:00;24.67;;;11.90;;
20695;SDS011;10507;52.754;13.040;2023-01-23T06:48:29;27.30;;;13.43;;
20695;SDS011;10507;52.754;13.040;2023-01-23T06:50:58;24.17;;;12.73;;
20695;SDS011;10507;52.754;13.040;2023-01-23T06:53:26;25.23;;;13.40;;
20695;SDS011;10507;52.754;13.040;2023-01-23T06:55:57;26.27;;;12.37;;
20695;SDS011;10507;52.754;13.040;2023-01-23T06:58:27;26.23;;;13.97;;
20695;SDS011;10507;52.754;13.040;2023-01-23T07:00:56;28.00;;;13.37;;
20695;SDS011;10507;52.754;13.040;2023-01-23T07:03:24;26.77;;;14.03;;
20695;SDS011;10507;52.754;13.040;2023-01-23T07:05:54;25.43;;;13.40;;
20695;SDS011;10507;52.754;13.040;2023-01-23T07:08:23;24.20;;;12.83;;
20695;SDS011;10507;52.754;13.040;2023-01-23T07:10:51;22.40;;;12.40;;
20695;SDS011;10507;52.754;13.040;2023-01-23T07:13:19;23.37;;;13.30;;
20695;SDS011;10507;52.754;13.040;2023-01-23T07:15:48;24.77;;;13.97;;
20695;SDS011;10507;52.754;13.040;2023-01-23T07:18:16;26.07;;;14.00;;
20695;SDS011;10507;52.754;13.040;2023-01-23T07:20:44;28.33;;;14.10;;
20695;SDS011;10507;52.754;13.040;2023-01-23T07:23:15;26.30;;;14.03;;
20695;SDS011;10507;52.754;13.040;2023-01-23T07:25:43;24.30;;;13.27;;
20695;SDS011;10507;52.754;13.040;2023-01-23T07:28:12;31.87;;;16.70;;
20695;SDS011;10507;52.754;13.040;2023-01-23T07:30:40;25.37;;;12.73;;
20695;SDS011;10507;52.754;13.040;2023-01-23T07:33:08;25.73;;;14.13;;
20695;SDS011;10507;52.754;13.040;2023-01-23T07:35:38;28.40;;;15.30;;
20695;SDS011;10507;52.754;13.040;2023-01-23T07:38:06;29.17;;;14.13;;
20695;SDS011;10507;52.754;13.040;2023-01-23T07:40:35;30.27;;;13.37;;
20695;SDS011;10507;52.754;13.040;2023-01-23T07:43:04;25.43;;;14.03;;
20695;SDS011;10507;52.754;13.040;2023-01-23T07:45:32;26.97;;;13.67;;
20695;SDS011;10507;52.754;13.040;2023-01-23T07:48:00;28.60;;;14.13;;
20695;SDS011;10507;52.754;13.040;2023-01-23T07:50:28;26.57;;;14.10;;
20695;SDS011;10507;52.754;13.040;2023-01-23T07:52:56;27.50;;;13.80;;
20695;SDS011;10507;52.754;13.040;2023-01-23T07:55:24;27.90;;;13.80;;
20695;SDS011;10507;52.754;13.040;2023-01-23T07:57:53;24.70;;;13.03;;
20695;SDS011;10507;52.754;13.040;2023-01-23T08:00:22;24.10;;;13.47;;
20695;SDS011;10507;52.754;13.040;2023-01-23T08:02:54;26.07;;;14.50;;
20695;SDS011;10507;52.754;13.040;2023-01-23T08:05:23;27.03;;;13.07;;
20695;SDS011;10507;52.754;13.040;2023-01-23T08:07:51;26.17;;;13.40;;
20695;SDS011;10507;52.754;13.040;2023-01-23T08:10:38;28.20;;;13.73;;
20695;SDS011;10507;52.754;13.040;2023-01-23T08:13:07;27.77;;;14.20;;
20695;SDS011;10507;52.754;13.040;2023-01-23T08:15:35;24.67;;;13.37;;
20695;SDS011;10507;52.754;13.040;2023-01-23T08:18:03;23.37;;;12.73;;
20695;SDS011;10507;52.754;13.040;2023-01-23T08:20:32;25.03;;;13.97;;
20695;SDS011;10507;52.754;13.040;2023-01-23T08:23:00;27.63;;;16.00;;
20695;SDS011;10507;52.754;13.040;2023-01-23T08:25:28;28.10;;;14.40;;
20695;SDS011;10507;52.754;13.040;2023-01-23T08:27:57;23.17;;;12.80;;
20695;SDS011;10507;52.754;13.040;2023-01-23T08:30:26;26.43;;;14.43;;
20695;SDS011;10507;52.754;13.040;2023-01-23T08:32:54;25.10;;;14.80;;
20695;SDS011;10507;52.754;13.040;2023-01-23T08:35:22;26.40;;;13.53;;
20695;SDS011;10507;52.754;13.040;2023-01-23T08:37:50;28.53;;;14.97;;
20695;SDS011;10507;52.754;13.040;2023-01-23T08:40:18;27.50;;;14.07;;
20695;SDS011;10507;52.754;13.040;2023-01-23T08:42:46;24.50;;;12.63;;
20695;SDS011;10507;52.754;13.040;2023-01-23T08:45:14;28.03;;;14.80;;
20695;SDS011;10507;52.754;13.040;2023-01-23T08:47:44;30.00;;;14.00;;
20695;SDS011;10507;52.754;13.040;2023-01-23T08:50:12;24.90;;;14.10;;
20695;SDS011;10507;52.754;13.040;2023-01-23T08:52:41;25.10;;;14.23;;
20695;SDS011;10507;52.754;13.040;2023-01-23T08:55:09;29.47;;;13.57;;
20695;SDS011;10507;52.754;13.040;2023-01-23T08:57:38;27.73;;;14.20;;
20695;SDS011;10507;52.754;13.040;2023-01-23T09:00:06;25.80;;;14.13;;
20695;SDS011;10507;52.754;13.040;2023-01-23T09:02:35;24.93;;;13.23;;
20695;SDS011;10507;52.754;13.040;2023-01-23T09:05:05;25.10;;;13.53;;
20695;SDS011;10507;52.754;13.040;2023-01-23T09:07:34;23.20;;;12.93;;
20695;SDS011;10507;52.754;13.040;2023-01-23T09:10:03;24.13;;;13.17;;
20695;SDS011;10507;52.754;13.040;2023-01-23T09:12:32;25.27;;;13.60;;
20695;SDS011;10507;52.754;13.040;2023-01-23T09:15:00;24.53;;;13.37;;
20695;SDS011;10507;52.754;13.040;2023-01-23T09:17:28;21.87;;;12.57;;
20695;SDS011;10507;52.754;13.040;2023-01-23T09:19:56;23.50;;;13.70;;
20695;SDS011;10507;52.754;13.040;2023-01-23T09:22:27;25.30;;;13.13;;
20695;SDS011;10507;52.754;13.040;2023-01-23T09:24:55;24.83;;;12.70;;
20695;SDS011;10507;52.754;13.040;2023-01-23T09:27:23;24.57;;;12.97;;
20695;SDS011;10507;52.754;13.040;2023-01-23T09:29:51;24.90;;;12.93;;
20695;SDS011;10507;52.754;13.040;2023-01-23T09:32:19;24.13;;;13.73;;
20695;SDS011;10507;52.754;13.040;2023-01-23T09:34:47;24.23;;;14.30;;
20695;SDS011;10507;52.754;13.040;2023-01-23T09:37:15;21.80;;;12.67;;
20695;SDS011;10507;52.754;13.040;2023-01-23T09:39:45;25.30;;;13.77;;
20695;SDS011;10507;52.754;13.040;2023-01-23T09:42:14;22.47;;;13.03;;
20695;SDS011;10507;52.754;13.040;2023-01-23T09:44:47;24.47;;;12.83;;
20695;SDS011;10507;52.754;13.040;2023-01-23T09:47:19;20.93;;;12.20;;
20695;SDS011;10507;52.754;13.040;2023-01-23T09:49:53;24.37;;;13.03;;
20695;SDS011;10507;52.754;13.040;2023-01-23T09:52:26;24.60;;;13.83;;
20695;SDS011;10507;52.754;13.040;2023-01-23T09:55:00;23.43;;;12.53;;
20695;SDS011;10507;52.754;13.040;2023-01-23T09:57:32;23.87;;;13.77;;
20695;SDS011;10507;52.754;13.040;2023-01-23T10:00:04;23.63;;;12.37;;
20695;SDS011;10507;52.754;13.040;2023-01-23T10:02:40;22.20;;;12.57;;
20695;SDS011;10507;52.754;13.040;2023-01-23T10:05:11;24.53;;;12.00;;
20695;SDS011;10507;52.754;13.040;2023-01-23T10:07:47;25.67;;;13.40;;
20695;SDS011;10507;52.754;13.040;2023-01-23T10:10:38;22.93;;;12.20;;
20695;SDS011;10507;52.754;13.040;2023-01-23T10:13:14;23.97;;;13.07;;
20695;SDS011;10507;52.754;13.040;2023-01-23T10:15:53;23.53;;;12.73;;
20695;SDS011;10507;52.754;13.040;2023-01-23T10:18:31;21.37;;;12.10;;
20695;SDS011;10507;52.754;13.040;2023-01-23T10:21:05;24.87;;;12.90;;
20695;SDS011;10507;52.754;13.040;2023-01-23T10:23:47;26.47;;;13.60;;
20695;SDS011;10507;52.754;13.040;2023-01-23T10:26:27;20.87;;;12.20;;
20695;SDS011;10507;52.754;13.040;2023-01-23T10:28:58;23.07;;;12.97;;
20695;SDS011;10507;52.754;13.040;2023-01-23T10:31:40;20.43;;;12.03;;
20695;SDS011;10507;52.754;13.040;2023-01-23T10:34:13;21.07;;;11.57;;
20695;SDS011;10507;52.754;13.040;2023-01-23T10:36:51;20.20;;;12.40;;
20695;SDS011;10507;52.754;13.040;2023-01-23T10:39:31;23.20;;;12.87;;
20695;SDS011;10507;52.754;13.040;2023-01-23T10:42:10;22.07;;;12.30;;
20695;SDS011;10507;52.754;13.040;2023-01-23T10:44:39;23.63;;;13.03;;
20695;SDS011;10507;52.754;13.040;2023-01-23T10:47:11;23.23;;;12.93;;
20695;SDS011;10507;52.754;13.040;2023-01-23T10:49:45;24.33;;;13.37;;
20695;SDS011;10507;52.754;13.040;2023-01-23T10:52:29;24.43;;;12.77;;
20695;SDS011;10507;52.754;13.040;2023-01-23T10:54:59;22.47;;;12.53;;
20695;SDS011;10507;52.754;13.040;2023-01-23T10:57:30;23.03;;;12.03;;
20695;SDS011;10507;52.754;13.040;2023-01-23T11:00:20;22.07;;;12.20;;
20695;SDS011;10507;52.754;13.040;2023-01-23T11:02:51;25.70;;;13.57;;
20695;SDS011;10507;52.754;13.040;2023-01-23T11:05:36;22.43;;;12.83;;
20695;SDS011;10507;52.754;13.040;2023-01-23T11:08:21;23.43;;;13.33;;
20695;SDS011;10507;52.754;13.040;2023-01-23T11:10:52;20.90;;;11.27;;
20695;SDS011;10507;52.754;13.040;2023-01-23T11:13:25;24.17;;;13.10;;
20695;SDS011;10507;52.754;13.040;2023-01-23T11:15:55;24.37;;;12.33;;
20695;SDS011;10507;52.754;13.040;2023-01-23T11:18:28;22.67;;;12.37;;
20695;SDS011;10507;52.754;13.040;2023-01-23T11:21:00;21.93;;;12.00;;
20695;SDS011;10507;52.754;13.040;2023-01-23T11:23:28;20.10;;;12.00;;
20695;SDS011;10507;52.754;13.040;2023-01-23T11:25:57;24.73;;;13.37;;
20695;SDS011;10507;52.754;13.040;2023-01-23T11:28:27;22.07;;;12.97;;
20695;SDS011;10507;52.754;13.040;2023-01-23T11:31:00;24.13;;;12.83;;
20695;SDS011;10507;52.754;13.040;2023-01-23T11:33:41;23.50;;;11.90;;
20695;SDS011;10507;52.754;13.040;2023-01-23T11:36:24;21.13;;;11.97;;
20695;SDS011;10507;52.754;13.040;2023-01-23T11:39:02;20.93;;;11.90;;
20695;SDS011;10507;52.754;13.040;2023-01-23T11:41:43;22.37;;;12.60;;
20695;SDS011;10507;52.754;13.040;2023-01-23T11:44:14;22.13;;;12.67;;
20695;SDS011;10507;52.754;13.040;2023-01-23T11:46:58;21.87;;;13.53;;
20695;SDS011;10507;52.754;13.040;2023-01-23T11:49:45;23.43;;;13.40;;
20695;SDS011;10507;52.754;13.040;2023-01-23T11:52:26;22.30;;;12.03;;
20695;SDS011;10507;52.754;13.040;2023-01-23T11:55:11;22.60;;;12.00;;
20695;SDS011;10507;52.754;13.040;2023-01-23T11:57:54;23.00;;;13.00;;
20695;SDS011;10507;52.754;13.040;2023-01-23T12:00:33;24.53;;;14.17;;
20695;SDS011;10507;52.754;13.040;2023-01-23T12:09:08;23.53;;;12.93;;
20695;SDS011;10507;52.754;13.040;2023-01-23T12:11:47;22.10;;;12.83;;
20695;SDS011;10507;52.754;13.040;2023-01-23T12:14:25;19.73;;;11.97;;
20695;SDS011;10507;52.754;13.040;2023-01-23T12:17:03;23.97;;;13.40;;
20695;SDS011;10507;52.754;13.040;2023-01-23T12:19:44;25.33;;;12.37;;
20695;SDS011;10507;52.754;13.040;2023-01-23T12:22:32;23.70;;;13.03;;
20695;SDS011;10507;52.754;13.040;2023-01-23T12:25:14;24.33;;;14.10;;
20695;SDS011;10507;52.754;13.040;2023-01-23T12:27:53;20.90;;;13.57;;
20695;SDS011;10507;52.754;13.040;2023-01-23T12:30:30;21.67;;;12.90;;
20695;SDS011;10507;52.754;13.040;2023-01-23T12:33:32;20.70;;;12.33;;
20695;SDS011;10507;52.754;13.040;2023-01-23T12:36:17;22.43;;;12.57;;
20695;SDS011;10507;52.754;13.040;2023-01-23T12:39:29;23.77;;;12.23;;
20695;SDS011;10507;52.754;13.040;2023-01-23T12:42:12;22.50;;;12.90;;
20695;SDS011;10507;52.754;13.040;2023-01-23T12:44:47;21.83;;;12.73;;
20695;SDS011;10507;52.754;13.040;2023-01-23T12:47:26;24.20;;;13.40;;
20695;SDS011;10507;52.754;13.040;2023-01-23T12:50:02;24.20;;;13.10;;
20695;SDS011;10507;52.754;13.040;2023-01-23T12:52:37;27.37;;;13.20;;
20695;SDS011;10507;52.754;13.040;2023-01-23T12:55:13;19.20;;;11.50;;
20695;SDS011;10507;52.754;13.040;2023-01-23T12:57:46;21.37;;;12.30;;
20695;SDS011;10507;52.754;13.040;2023-01-23T13:03:26;21.73;;;12.60;;
20695;SDS011;10507;52.754;13.040;2023-01-23T13:06:27;21.17;;;11.60;;
20695;SDS011;10507;52.754;13.040;2023-01-23T13:09:25;20.57;;;12.07;;
20695;SDS011;10507;52.754;13.040;2023-01-23T13:12:04;21.63;;;11.13;;
20695;SDS011;10507;52.754;13.040;2023-01-23T13:14:47;18.80;;;11.37;;
20695;SDS011;10507;52.754;13.040;2023-01-23T13:17:38;19.67;;;11.87;;
20695;SDS011;10507;52.754;13.040;2023-01-23T13:20:21;21.53;;;12.57;;
20695;SDS011;10507;52.754;13.040;2023-01-23T13:26:20;19.07;;;10.97;;
20695;SDS011;10507;52.754;13.040;2023-01-23T13:28:58;18.27;;;11.83;;
20695;SDS011;10507;52.754;13.040;2023-01-23T13:31:33;18.77;;;11.43;;
20695;SDS011;10507;52.754;13.040;2023-01-23T13:40:19;18.60;;;10.93;;
20695;SDS011;10507;52.754;13.040;2023-01-23T13:42:49;19.87;;;11.50;;
20695;SDS011;10507;52.754;13.040;2023-01-23T13:51:34;17.83;;;10.80;;
20695;SDS011;10507;52.754;13.040;2023-01-23T13:54:17;16.73;;;9.80;;
20695;SDS011;10507;52.754;13.040;2023-01-23T13:57:24;17.37;;;9.80;;
20695;SDS011;10507;52.754;13.040;2023-01-23T14:00:10;18.90;;;10.47;;
20695;SDS011;10507;52.754;13.040;2023-01-23T14:02:55;18.90;;;10.33;;
20695;SDS011;10507;52.754;13.040;2023-01-23T14:06:02;21.00;;;10.87;;
20695;SDS011;10507;52.754;13.040;2023-01-23T14:08:46;19.70;;;11.60;;
20695;SDS011;10507;52.754;13.040;2023-01-23T14:18:34;16.40;;;10.00;;
20695;SDS011;10507;52.754;13.040;2023-01-23T14:21:20;19.80;;;10.37;;
20695;SDS011;10507;52.754;13.040;2023-01-23T14:23:59;19.37;;;11.40;;
20695;SDS011;10507;52.754;13.040;2023-01-23T14:26:34;18.87;;;10.67;;
20695;SDS011;10507;52.754;13.040;2023-01-23T14:29:03;18.20;;;10.47;;
20695;SDS011;10507;52.754;13.040;2023-01-23T14:31:45;18.33;;;10.63;;
20695;SDS011;10507;52.754;13.040;2023-01-23T14:34:14;17.33;;;10.80;;
20695;SDS011;10507;52.754;13.040;2023-01-23T14:36:45;18.13;;;10.50;;
20695;SDS011;10507;52.754;13.040;2023-01-23T14:39:15;19.13;;;9.93;;
20695;SDS011;10507;52.754;13.040;2023-01-23T14:41:46;17.27;;;10.17;;
20695;SDS011;10507;52.754;13.040;2023-01-23T14:44:17;20.57;;;12.50;;
20695;SDS011;10507;52.754;13.040;2023-01-23T14:46:51;18.03;;;10.07;;
20695;SDS011;10507;52.754;13.040;2023-01-23T14:49:25;20.53;;;11.13;;
20695;SDS011;10507;52.754;13.040;2023-01-23T14:51:57;18.50;;;10.97;;
20695;SDS011;10507;52.754;13.040;2023-01-23T14:54:26;19.47;;;12.07;;
20695;SDS011;10507;52.754;13.040;2023-01-23T14:56:59;18.57;;;10.63;;
20695;SDS011;10507;52.754;13.040;2023-01-23T14:59:30;18.63;;;10.33;;
20695;SDS011;10507;52.754;13.040;2023-01-23T15:02:01;16.87;;;10.17;;
20695;SDS011;10507;52.754;13.040;2023-01-23T15:07:41;18.67;;;10.70;;
20695;SDS011;10507;52.754;13.040;2023-01-23T15:10:13;18.73;;;10.80;;
20695;SDS011;10507;52.754;13.040;2023-01-23T15:12:47;20.03;;;10.67;;
20695;SDS011;10507;52.754;13.040;2023-01-23T15:15:21;18.73;;;10.30;;